KCEY/CEY METAR and TAF weather

Enter ICAO airport designator
Station Type Date Time Source
KCEY METAR 2020/10/29 17:15 UTC NOAA

KCEY 291715Z AUTO 21008KT 1SM BKN006 14/14 A2965 RMK AO1


Station Type Date Time Source
KCEY Decoded METAR 2020/10/29 17:15 UTC NOAA

Station name not available
Oct 29, 2020 - 01:15 PM EDT / 2020.10.29 1715 UTC
Wind: from the SSW (210 degrees) at 9 MPH (8 KT):0
Visibility: 1 mile(s):0
Sky conditions: mostly cloudy
Temperature: 57 F (14 C)
Dew Point: 57 F (14 C)
Relative Humidity: 100%
Pressure (altimeter): 29.65 in. Hg (1004 hPa)
ob: KCEY 291715Z AUTO 21008KT 1SM BKN006 14/14 A2965 RMK AO1
cycle: 17

Station Type Date Time Source
KCEY TAF UTC NOAA

Error!

Example: see airport list